createdAt,value
2023-03-04T00:00:10.929Z,52.30
2023-03-04T00:02:39.107Z,51.93
2023-03-04T00:05:07.701Z,49.70
2023-03-04T00:07:35.879Z,46.17
2023-03-04T00:10:04.066Z,50.50
2023-03-04T00:12:33.608Z,55.47
2023-03-04T00:15:01.819Z,48.23
2023-03-04T00:17:31.515Z,48.53
2023-03-04T00:19:59.782Z,50.70
2023-03-04T00:22:28.014Z,54.43
2023-03-04T00:24:56.177Z,57.33
2023-03-04T00:27:24.361Z,49.00
2023-03-04T00:29:53.851Z,51.53
2023-03-04T00:32:22.172Z,50.97
2023-03-04T00:34:50.390Z,50.60
2023-03-04T00:37:21.551Z,55.30
2023-03-04T00:39:49.699Z,56.67
2023-03-04T00:42:17.880Z,54.47
2023-03-04T00:44:46.019Z,55.93
2023-03-04T00:47:15.506Z,54.70
2023-03-04T00:49:43.638Z,58.33
2023-03-04T00:52:11.787Z,56.00
2023-03-04T00:54:39.959Z,54.03
2023-03-04T00:57:08.190Z,56.93
2023-03-04T00:59:36.444Z,55.20
2023-03-04T01:02:04.839Z,53.73
2023-03-04T01:04:34.389Z,51.00
2023-03-04T01:07:02.569Z,47.77
2023-03-04T01:09:30.771Z,52.93
2023-03-04T01:11:58.934Z,50.30
2023-03-04T01:14:27.082Z,49.53
2023-03-04T01:16:55.302Z,51.53
2023-03-04T01:19:23.464Z,55.53
2023-03-04T01:21:52.979Z,55.37
2023-03-04T01:24:21.113Z,53.83
2023-03-04T01:26:49.323Z,52.27
2023-03-04T01:29:17.481Z,48.57
2023-03-04T01:31:45.640Z,44.60
2023-03-04T01:34:13.829Z,49.83
2023-03-04T01:36:42.063Z,49.47
2023-03-04T01:39:11.581Z,48.30
2023-03-04T01:41:39.773Z,50.00
2023-03-04T01:44:08.162Z,44.80
2023-03-04T01:46:36.419Z,47.83
2023-03-04T01:49:04.726Z,48.57
2023-03-04T01:51:32.920Z,42.33
2023-03-04T01:54:01.054Z,44.33
2023-03-04T01:56:32.075Z,46.17
2023-03-04T01:59:10.564Z,46.07
2023-03-04T02:01:38.916Z,45.67
2023-03-04T02:04:07.883Z,46.93
2023-03-04T02:06:36.597Z,46.07
2023-03-04T02:09:05.476Z,42.07
2023-03-04T02:11:35.179Z,44.17
2023-03-04T02:14:03.354Z,36.67
2023-03-04T02:16:31.500Z,37.30
2023-03-04T02:18:59.681Z,31.87
2023-03-04T02:21:29.234Z,38.13
2023-03-04T02:24:01.345Z,31.13
2023-03-04T02:26:31.569Z,35.53
2023-03-04T02:29:00.986Z,37.33
2023-03-04T02:31:30.277Z,30.30
2023-03-04T02:33:59.356Z,34.00
2023-03-04T02:36:27.908Z,32.80
2023-03-04T02:38:56.790Z,37.27
2023-03-04T02:41:26.599Z,33.57
2023-03-04T02:43:56.970Z,30.20
2023-03-04T02:46:25.197Z,31.17
2023-03-04T02:48:53.701Z,27.77
2023-03-04T02:51:22.120Z,23.03
2023-03-04T02:53:50.276Z,34.33
2023-03-04T02:56:18.425Z,30.30
2023-03-04T02:58:46.600Z,29.07
2023-03-04T03:01:16.140Z,29.20
2023-03-04T03:03:44.343Z,28.17
2023-03-04T03:06:12.531Z,23.83
2023-03-04T03:08:40.702Z,28.57
2023-03-04T03:11:09.319Z,24.90
2023-03-04T03:13:37.463Z,27.83
2023-03-04T03:16:05.831Z,23.83
2023-03-04T03:18:35.427Z,25.70
2023-03-04T03:21:03.601Z,26.57
2023-03-04T03:23:31.753Z,30.00
2023-03-04T03:25:59.887Z,22.63
2023-03-04T03:28:28.101Z,25.70
2023-03-04T03:30:56.357Z,25.90
2023-03-04T03:33:24.640Z,23.53
2023-03-04T03:35:54.213Z,20.80
2023-03-04T03:38:22.488Z,21.97
2023-03-04T03:40:50.643Z,21.80
2023-03-04T03:43:18.821Z,25.63
2023-03-04T03:45:47.076Z,28.33
2023-03-04T03:48:15.367Z,23.27
2023-03-04T03:50:43.581Z,24.53
2023-03-04T03:53:13.119Z,22.63
2023-03-04T03:55:41.280Z,23.67
2023-03-04T03:58:09.442Z,18.90
2023-03-04T04:00:37.575Z,20.23
2023-03-04T04:03:05.866Z,24.20
2023-03-04T04:05:45.691Z,22.47
2023-03-04T04:08:16.126Z,23.90
2023-03-04T04:10:44.767Z,20.87
2023-03-04T04:13:13.100Z,24.50
2023-03-04T04:15:41.587Z,24.73
2023-03-04T04:18:09.990Z,23.83
2023-03-04T04:20:38.190Z,22.53
2023-03-04T04:23:06.398Z,19.67
2023-03-04T04:25:35.939Z,26.73
2023-03-04T04:28:04.099Z,24.70
2023-03-04T04:30:32.334Z,19.17
2023-03-04T04:33:01.833Z,24.43
2023-03-04T04:35:30.230Z,21.17
2023-03-04T04:37:58.747Z,23.93
2023-03-04T04:40:26.881Z,28.70
2023-03-04T04:42:56.825Z,29.47
2023-03-04T04:45:25.671Z,26.10
2023-03-04T04:47:53.878Z,25.57
2023-03-04T04:50:22.059Z,27.93
2023-03-04T04:52:50.215Z,25.50
2023-03-04T04:55:18.536Z,25.63
2023-03-04T04:57:46.697Z,25.20
2023-03-04T05:00:18.886Z,24.10
2023-03-04T05:02:47.023Z,22.23
2023-03-04T05:05:15.363Z,26.83
2023-03-04T05:07:43.524Z,26.47
2023-03-04T05:10:12.241Z,24.80
2023-03-04T05:12:40.420Z,24.23
2023-03-04T05:15:09.070Z,25.17
2023-03-04T05:17:38.569Z,20.23
2023-03-04T05:20:07.256Z,24.77
2023-03-04T05:22:35.426Z,22.07
2023-03-04T05:25:03.583Z,23.67
2023-03-04T05:27:31.755Z,27.43
2023-03-04T05:30:00.813Z,26.20
2023-03-04T05:32:29.387Z,19.43
2023-03-04T05:34:58.918Z,23.37
2023-03-04T05:37:27.199Z,20.10
2023-03-04T05:39:55.380Z,17.27
2023-03-04T05:42:23.541Z,22.13
2023-03-04T05:44:51.732Z,22.50
2023-03-04T05:47:19.934Z,21.97
2023-03-04T05:49:48.099Z,23.23
2023-03-04T05:52:17.572Z,19.23
2023-03-04T05:54:45.732Z,23.77
2023-03-04T05:57:13.876Z,28.20
2023-03-04T05:59:42.023Z,25.37
2023-03-04T06:02:10.221Z,22.63
2023-03-04T06:04:38.362Z,21.30
2023-03-04T06:07:06.579Z,21.10
2023-03-04T06:09:36.193Z,18.40
2023-03-04T06:12:04.373Z,24.13
2023-03-04T06:14:34.762Z,21.07
2023-03-04T06:17:02.933Z,22.07
2023-03-04T06:19:31.150Z,24.40
2023-03-04T06:21:59.348Z,20.93
2023-03-04T06:24:28.314Z,21.57
2023-03-04T06:26:57.793Z,18.70
2023-03-04T06:29:26.025Z,24.83
2023-03-04T06:31:54.229Z,19.10
2023-03-04T06:34:22.480Z,23.07
2023-03-04T06:36:50.928Z,19.80
2023-03-04T06:39:19.183Z,18.97
2023-03-04T06:41:47.488Z,18.23
2023-03-04T06:44:17.068Z,21.63
2023-03-04T06:46:45.317Z,18.13
2023-03-04T06:49:13.450Z,17.47
2023-03-04T06:51:41.680Z,23.50
2023-03-04T06:54:09.851Z,19.83
2023-03-04T06:56:38.294Z,16.43
2023-03-04T06:59:06.879Z,21.97
2023-03-04T07:01:38.145Z,18.17
2023-03-04T07:04:06.544Z,20.57
2023-03-04T07:06:34.724Z,18.03
2023-03-04T07:09:02.909Z,22.43
2023-03-04T07:11:31.285Z,22.17
2023-03-04T07:13:59.579Z,18.53
2023-03-04T07:16:27.804Z,16.97
2023-03-04T07:18:57.371Z,19.10
2023-03-04T07:21:25.551Z,24.60
2023-03-04T07:23:53.797Z,23.30
2023-03-04T07:26:22.291Z,15.10
2023-03-04T07:28:52.287Z,16.03
2023-03-04T07:31:23.805Z,14.07
2023-03-04T07:33:52.314Z,19.50
2023-03-04T07:36:21.813Z,20.03
2023-03-04T07:38:50.767Z,19.97
2023-03-04T07:41:19.420Z,17.23
2023-03-04T07:43:47.558Z,20.13
2023-03-04T07:46:16.100Z,9.87
2023-03-04T07:48:44.282Z,16.30
2023-03-04T07:51:14.130Z,22.33
2023-03-04T07:53:44.404Z,21.23
2023-03-04T07:56:13.728Z,14.63
2023-03-04T07:58:41.971Z,14.67
2023-03-04T08:01:10.987Z,15.33
2023-03-04T08:03:39.118Z,19.10
2023-03-04T08:06:07.960Z,11.40
2023-03-04T08:08:36.325Z,13.60
2023-03-04T08:11:07.417Z,19.30
2023-03-04T08:13:35.618Z,22.57
2023-03-04T08:16:04.361Z,11.73
2023-03-04T08:18:32.690Z,16.60
2023-03-04T08:21:00.865Z,14.73
2023-03-04T08:23:29.094Z,11.80
2023-03-04T08:25:57.265Z,13.73
2023-03-04T08:28:26.750Z,10.47
2023-03-04T08:30:56.656Z,15.80
2023-03-04T08:33:24.806Z,15.23
2023-03-04T08:35:52.992Z,11.00
2023-03-04T08:38:21.217Z,8.97
2023-03-04T08:40:53.693Z,10.07
2023-03-04T08:43:22.002Z,11.67
2023-03-04T08:45:51.690Z,11.27
2023-03-04T08:48:20.377Z,18.50
2023-03-04T08:50:48.907Z,12.20
2023-03-04T08:53:17.576Z,14.17
2023-03-04T08:55:45.949Z,13.83
2023-03-04T08:58:14.509Z,16.37
2023-03-04T09:00:44.374Z,15.50
2023-03-04T09:03:14.319Z,16.17
2023-03-04T09:05:42.727Z,13.87
2023-03-04T09:08:10.888Z,16.17
2023-03-04T09:10:39.022Z,12.97
2023-03-04T09:13:07.337Z,10.60
2023-03-04T09:15:36.052Z,9.90
2023-03-04T09:18:04.219Z,9.03
2023-03-04T09:20:33.868Z,8.13
2023-03-04T09:23:02.046Z,10.53
2023-03-04T09:25:30.396Z,6.10
2023-03-04T09:27:58.601Z,5.90
2023-03-04T09:30:28.126Z,7.83
2023-03-04T09:32:57.355Z,5.80
2023-03-04T09:35:25.705Z,7.70
2023-03-04T09:37:55.237Z,6.80
2023-03-04T09:40:24.713Z,6.83
2023-03-04T09:42:54.351Z,8.50
2023-03-04T09:45:23.778Z,6.13
2023-03-04T09:47:53.011Z,3.83
2023-03-04T09:50:21.751Z,7.83
2023-03-04T09:53:08.063Z,6.10
2023-03-04T09:55:38.174Z,7.57
2023-03-04T09:58:09.051Z,3.90
2023-03-04T10:00:40.610Z,6.30
2023-03-04T10:03:13.721Z,7.23
2023-03-04T10:05:44.125Z,5.17
2023-03-04T10:08:24.262Z,4.40
2023-03-04T10:10:53.586Z,4.27
2023-03-04T10:13:25.892Z,6.43
2023-03-04T10:15:54.436Z,5.13
2023-03-04T10:18:24.339Z,5.77
2023-03-04T10:20:55.393Z,7.83
2023-03-04T10:23:27.013Z,8.40
2023-03-04T10:25:55.430Z,4.17
2023-03-04T10:28:26.470Z,5.07
2023-03-04T10:30:59.068Z,6.63
2023-03-04T10:33:27.859Z,7.20
2023-03-04T10:36:01.929Z,3.33
2023-03-04T10:38:33.431Z,4.53
2023-03-04T10:41:01.971Z,4.87
2023-03-04T10:43:30.329Z,4.20
2023-03-04T10:45:59.355Z,2.57
2023-03-04T10:48:28.665Z,6.07
2023-03-04T10:51:12.143Z,7.70
2023-03-04T10:53:43.480Z,6.03
2023-03-04T10:56:26.500Z,4.90
2023-03-04T10:58:54.664Z,3.73
2023-03-04T11:01:25.234Z,2.23
2023-03-04T11:03:54.766Z,3.97
2023-03-04T11:06:23.634Z,4.10
2023-03-04T11:08:56.717Z,6.17
2023-03-04T11:11:25.849Z,2.57
2023-03-04T11:13:54.737Z,6.57
2023-03-04T11:16:27.307Z,3.33
2023-03-04T11:18:56.996Z,4.93
2023-03-04T11:21:25.885Z,4.17
2023-03-04T11:23:58.232Z,4.23
2023-03-04T11:26:30.318Z,5.43
2023-03-04T11:29:01.417Z,2.90
2023-03-04T11:31:32.288Z,4.37
2023-03-04T11:34:03.818Z,5.50
2023-03-04T11:36:35.750Z,3.43
2023-03-04T11:39:06.815Z,5.47
2023-03-04T11:41:37.476Z,3.83
2023-03-04T11:44:07.310Z,5.37
2023-03-04T11:46:50.712Z,8.67
2023-03-04T11:49:28.457Z,2.57
2023-03-04T11:52:02.883Z,4.10
2023-03-04T11:54:35.932Z,4.83
2023-03-04T11:57:07.659Z,4.30
2023-03-04T11:59:37.898Z,3.43
2023-03-04T12:02:19.579Z,4.70
2023-03-04T12:05:05.929Z,3.33
2023-03-04T12:07:44.445Z,3.90
2023-03-04T12:10:21.400Z,4.03
2023-03-04T12:12:55.695Z,2.00
2023-03-04T12:15:29.292Z,4.97
2023-03-04T12:18:12.730Z,6.57
2023-03-04T12:20:58.348Z,3.37
2023-03-04T12:23:41.690Z,3.57
2023-03-04T12:26:15.987Z,2.70
2023-03-04T12:28:52.344Z,2.83
2023-03-04T12:31:32.102Z,3.03
2023-03-04T12:34:11.938Z,4.07
2023-03-04T12:36:45.315Z,2.00
2023-03-04T12:39:22.291Z,1.93
2023-03-04T12:41:55.609Z,4.17
2023-03-04T12:44:24.616Z,3.93
2023-03-04T12:47:06.904Z,5.50
2023-03-04T12:49:41.355Z,3.30
2023-03-04T12:52:14.099Z,5.17
2023-03-04T12:54:43.140Z,2.80
2023-03-04T12:57:14.693Z,4.27
2023-03-04T12:59:44.847Z,4.13
2023-03-04T13:02:23.575Z,3.70
2023-03-04T13:04:54.928Z,1.93
2023-03-04T13:07:24.282Z,2.67
2023-03-04T13:09:54.743Z,1.70
2023-03-04T13:12:24.838Z,3.73
2023-03-04T13:15:19.077Z,3.83
2023-03-04T13:17:50.083Z,2.97
2023-03-04T13:20:23.694Z,2.77
2023-03-04T13:22:54.629Z,3.70
2023-03-04T13:25:33.675Z,3.63
2023-03-04T13:28:15.478Z,3.90
2023-03-04T13:30:59.427Z,2.90
2023-03-04T13:33:46.251Z,5.47
2023-03-04T13:36:29.121Z,6.20
2023-03-04T13:39:00.352Z,4.97
2023-03-04T13:41:32.101Z,3.57
2023-03-04T13:44:02.020Z,3.10
2023-03-04T13:46:31.013Z,3.57
2023-03-04T13:49:03.020Z,5.63
2023-03-04T13:51:32.520Z,5.53
2023-03-04T13:54:09.181Z,5.80
2023-03-04T13:56:38.131Z,5.27
2023-03-04T13:59:16.693Z,3.70
2023-03-04T14:01:55.482Z,4.77
2023-03-04T14:04:26.238Z,3.27
2023-03-04T14:06:55.061Z,3.00
2023-03-04T14:09:24.392Z,4.63
2023-03-04T14:11:53.246Z,3.30
2023-03-04T14:14:24.431Z,6.00
2023-03-04T14:16:53.655Z,12.03
2023-03-04T14:19:25.050Z,5.00
2023-03-04T14:21:53.295Z,3.13
2023-03-04T14:24:22.419Z,3.93
2023-03-04T14:26:50.833Z,4.73
2023-03-04T14:29:24.720Z,3.40
2023-03-04T14:31:53.356Z,3.23
2023-03-04T14:34:25.529Z,3.97
2023-03-04T14:36:53.692Z,5.10
2023-03-04T14:39:22.055Z,5.13
2023-03-04T14:41:51.430Z,2.33
2023-03-04T14:44:24.604Z,2.83
2023-03-04T14:47:07.052Z,2.47
2023-03-04T14:49:37.077Z,5.23
2023-03-04T14:52:05.552Z,4.13
2023-03-04T14:54:35.443Z,5.40
2023-03-04T14:57:16.702Z,3.13
2023-03-04T14:59:44.853Z,6.03
2023-03-04T15:02:20.941Z,4.83
2023-03-04T15:04:51.024Z,3.23
2023-03-04T15:07:20.752Z,2.67
2023-03-04T15:09:52.634Z,4.47
2023-03-04T15:12:24.858Z,2.43
2023-03-04T15:14:53.907Z,3.67
2023-03-04T15:17:27.469Z,3.90
2023-03-04T15:20:02.852Z,3.90
2023-03-04T15:22:31.278Z,4.23
2023-03-04T15:24:59.430Z,5.17
2023-03-04T15:27:28.477Z,6.37
2023-03-04T15:29:59.136Z,6.43
2023-03-04T15:32:28.838Z,7.97
2023-03-04T15:34:57.127Z,5.27
2023-03-04T15:37:26.448Z,8.03
2023-03-04T15:39:55.014Z,6.33
2023-03-04T15:42:23.230Z,4.70
2023-03-04T15:44:51.382Z,7.57
2023-03-04T15:47:19.806Z,6.80
2023-03-04T15:49:49.595Z,9.57
2023-03-04T15:52:19.442Z,6.80
2023-03-04T15:54:48.270Z,9.97
2023-03-04T15:57:22.122Z,7.13
2023-03-04T15:59:50.354Z,5.33
2023-03-04T16:02:21.243Z,9.00
2023-03-04T16:04:50.828Z,7.30
2023-03-04T16:07:19.898Z,9.13
2023-03-04T16:09:48.624Z,9.20
2023-03-04T16:12:16.824Z,10.40
2023-03-04T16:14:46.849Z,10.50
2023-03-04T16:17:16.210Z,11.60
2023-03-04T16:19:44.372Z,9.60
2023-03-04T16:22:15.251Z,11.87
2023-03-04T16:24:44.066Z,12.10
2023-03-04T16:27:12.693Z,8.97
2023-03-04T16:29:40.869Z,7.87
2023-03-04T16:32:09.271Z,10.30
2023-03-04T16:34:37.570Z,9.60
2023-03-04T16:37:08.274Z,12.57
2023-03-04T16:39:37.775Z,9.20
2023-03-04T16:42:06.209Z,12.57
2023-03-04T16:44:34.450Z,12.67
2023-03-04T16:47:05.221Z,11.33
2023-03-04T16:49:33.416Z,12.93
2023-03-04T16:52:01.597Z,14.90
2023-03-04T16:54:31.538Z,14.33
2023-03-04T16:57:01.077Z,16.93
2023-03-04T16:59:30.046Z,11.40
2023-03-04T17:01:58.370Z,14.40
2023-03-04T17:04:26.599Z,14.73
2023-03-04T17:06:54.795Z,13.80
2023-03-04T17:09:22.982Z,16.37
2023-03-04T17:11:52.960Z,16.50
2023-03-04T17:14:22.853Z,15.87
2023-03-04T17:16:51.006Z,17.37
2023-03-04T17:19:19.131Z,16.77
2023-03-04T17:21:47.306Z,14.73
2023-03-04T17:24:15.459Z,21.67
2023-03-04T17:26:43.632Z,12.67
2023-03-04T17:29:11.844Z,17.60
2023-03-04T17:31:41.385Z,24.60
2023-03-04T17:34:09.559Z,20.83
2023-03-04T17:36:37.710Z,18.50
2023-03-04T17:39:06.371Z,15.23
2023-03-04T17:41:36.210Z,14.97
2023-03-04T17:44:05.772Z,17.20
2023-03-04T17:46:33.965Z,13.40
2023-03-04T17:49:03.570Z,11.77
2023-03-04T17:51:33.441Z,11.70
2023-03-04T17:54:02.007Z,13.77
2023-03-04T17:56:31.320Z,17.57
2023-03-04T17:59:00.218Z,17.07
2023-03-04T18:01:28.636Z,12.30
2023-03-04T18:03:57.236Z,13.80
2023-03-04T18:06:26.727Z,15.23
2023-03-04T18:08:55.021Z,12.03
2023-03-04T18:11:23.188Z,16.23
2023-03-04T18:13:51.404Z,12.17
2023-03-04T18:16:23.541Z,15.70
2023-03-04T18:18:51.860Z,16.00
2023-03-04T18:21:20.506Z,11.97
2023-03-04T18:23:50.012Z,16.50
2023-03-04T18:26:20.818Z,15.13
2023-03-04T18:28:49.321Z,16.57
2023-03-04T18:31:19.271Z,14.47
2023-03-04T18:33:47.950Z,11.80
2023-03-04T18:36:16.648Z,12.03
2023-03-04T18:38:44.782Z,14.07
2023-03-04T18:41:15.484Z,13.73
2023-03-04T18:43:43.649Z,22.17
2023-03-04T18:46:12.554Z,15.67
2023-03-04T18:48:43.503Z,17.07
2023-03-04T18:51:11.653Z,13.53
2023-03-04T18:53:39.814Z,15.23
2023-03-04T18:56:12.214Z,15.67
2023-03-04T18:58:43.089Z,16.20
2023-03-04T19:01:12.666Z,11.37
2023-03-04T19:03:41.845Z,11.87
2023-03-04T19:06:10.086Z,12.00
2023-03-04T19:08:38.221Z,12.17
2023-03-04T19:11:06.708Z,14.07
2023-03-04T19:13:34.877Z,13.97
2023-03-04T19:16:04.397Z,12.70
2023-03-04T19:18:32.529Z,11.80
2023-03-04T19:21:02.988Z,14.17
2023-03-04T19:23:32.405Z,13.50
2023-03-04T19:26:00.549Z,12.30
2023-03-04T19:28:28.866Z,12.23
2023-03-04T19:30:59.058Z,16.97
2023-03-04T19:33:28.763Z,15.13
2023-03-04T19:35:56.963Z,13.50
2023-03-04T19:38:25.168Z,9.60
2023-03-04T19:40:53.319Z,9.97
2023-03-04T19:43:21.475Z,11.37
2023-03-04T19:45:54.149Z,9.17
2023-03-04T19:48:22.987Z,11.13
2023-03-04T19:50:52.481Z,10.67
2023-03-04T19:53:20.612Z,9.47
2023-03-04T19:55:49.595Z,9.43
2023-03-04T19:58:17.864Z,11.40
2023-03-04T20:00:46.115Z,4.60
2023-03-04T20:03:14.326Z,10.20
2023-03-04T20:05:42.483Z,8.50
2023-03-04T20:08:12.005Z,12.73
2023-03-04T20:10:41.053Z,11.20
2023-03-04T20:13:09.967Z,8.97
2023-03-04T20:15:38.433Z,8.53
2023-03-04T20:18:06.763Z,6.10
2023-03-04T20:20:35.255Z,9.27
2023-03-04T20:23:03.416Z,7.77
2023-03-04T20:25:33.046Z,6.00
2023-03-04T20:28:01.665Z,7.97
2023-03-04T20:30:29.874Z,10.17
2023-03-04T20:32:58.025Z,6.50
2023-03-04T20:35:26.205Z,5.83
2023-03-04T20:37:54.358Z,5.90
2023-03-04T20:40:22.582Z,6.03
2023-03-04T20:42:52.077Z,6.67
2023-03-04T20:45:21.103Z,7.93
2023-03-04T20:47:49.850Z,5.73
2023-03-04T20:50:18.775Z,7.73
2023-03-04T20:52:48.079Z,5.53
2023-03-04T20:55:16.287Z,5.63
2023-03-04T20:57:44.476Z,5.97
2023-03-04T21:00:14.854Z,8.63
2023-03-04T21:02:43.019Z,2.60
2023-03-04T21:05:11.342Z,5.43
2023-03-04T21:07:39.480Z,5.63
2023-03-04T21:10:08.113Z,7.57
2023-03-04T21:12:36.290Z,7.00
2023-03-04T21:15:04.577Z,8.23
2023-03-04T21:17:34.066Z,5.93
2023-03-04T21:20:02.251Z,4.17
2023-03-04T21:22:30.425Z,4.90
2023-03-04T21:24:58.582Z,5.80
2023-03-04T21:27:26.756Z,3.83
2023-03-04T21:29:54.919Z,3.57
2023-03-04T21:32:26.058Z,5.77
2023-03-04T21:34:56.278Z,4.37
2023-03-04T21:37:26.319Z,4.77
2023-03-04T21:39:54.826Z,4.90
2023-03-04T21:42:23.144Z,5.80
2023-03-04T21:44:52.128Z,5.57
2023-03-04T21:47:20.534Z,3.60
2023-03-04T21:49:48.907Z,2.87
2023-03-04T21:52:18.694Z,7.07
2023-03-04T21:54:47.994Z,6.47
2023-03-04T21:57:16.288Z,7.17
2023-03-04T21:59:44.449Z,4.60
2023-03-04T22:02:15.573Z,4.90
2023-03-04T22:04:43.779Z,4.90
2023-03-04T22:07:12.151Z,4.87
2023-03-04T22:09:41.786Z,5.37
2023-03-04T22:12:10.154Z,8.10
2023-03-04T22:14:38.328Z,3.83
2023-03-04T22:17:06.596Z,4.33
2023-03-04T22:19:34.883Z,7.60
2023-03-04T22:22:03.066Z,6.50
2023-03-04T22:24:31.242Z,6.57
2023-03-04T22:27:00.832Z,7.63
2023-03-04T22:29:29.009Z,6.87
2023-03-04T22:31:57.262Z,6.10
2023-03-04T22:34:25.538Z,6.47
2023-03-04T22:36:53.690Z,3.83
2023-03-04T22:39:22.931Z,6.27
2023-03-04T22:41:51.206Z,5.63
2023-03-04T22:44:20.764Z,5.70
2023-03-04T22:46:49.010Z,11.60
2023-03-04T22:49:17.392Z,5.73
2023-03-04T22:51:46.203Z,6.00
2023-03-04T22:54:15.134Z,4.77
2023-03-04T22:56:43.308Z,7.60
2023-03-04T22:59:11.835Z,5.97
2023-03-04T23:01:41.694Z,3.33
2023-03-04T23:04:09.871Z,6.00
2023-03-04T23:06:38.028Z,3.53
2023-03-04T23:09:06.266Z,6.03
2023-03-04T23:11:36.365Z,4.87
2023-03-04T23:14:06.839Z,6.17
2023-03-04T23:16:37.196Z,4.17
2023-03-04T23:19:07.250Z,5.90
2023-03-04T23:21:35.535Z,9.67
2023-03-04T23:24:03.999Z,6.67
2023-03-04T23:26:33.352Z,2.83
2023-03-04T23:29:01.996Z,10.87
2023-03-04T23:31:30.494Z,5.13
2023-03-04T23:33:59.161Z,7.33
2023-03-04T23:36:29.391Z,5.33
2023-03-04T23:38:57.973Z,7.23
2023-03-04T23:41:27.889Z,7.03
2023-03-04T23:43:57.030Z,5.77
2023-03-04T23:46:25.662Z,8.60
2023-03-04T23:48:54.406Z,3.83
2023-03-04T23:51:23.454Z,3.57
2023-03-04T23:53:53.183Z,6.93
2023-03-04T23:56:22.193Z,5.60
2023-03-04T23:58:51.028Z,4.67
